sensor_id;sensor_type;location;lat;lon;timestamp;P1;durP1;ratioP1;P2;durP2;ratioP2
12263;SDS011;6194;49.010;8.414;2023-05-07T00:02:06;4.00;;;3.60;;
12263;SDS011;6194;49.010;8.414;2023-05-07T00:04:32;3.57;;;3.27;;
12263;SDS011;6194;49.010;8.414;2023-05-07T00:07:01;3.80;;;3.50;;
12263;SDS011;6194;49.010;8.414;2023-05-07T00:09:27;4.77;;;3.70;;
12263;SDS011;6194;49.010;8.414;2023-05-07T00:11:53;6.03;;;3.37;;
12263;SDS011;6194;49.010;8.414;2023-05-07T00:14:19;5.53;;;3.70;;
12263;SDS011;6194;49.010;8.414;2023-05-07T00:16:45;4.13;;;3.43;;
12263;SDS011;6194;49.010;8.414;2023-05-07T00:19:10;4.83;;;3.53;;
12263;SDS011;6194;49.010;8.414;2023-05-07T00:21:36;3.83;;;3.47;;
12263;SDS011;6194;49.010;8.414;2023-05-07T00:24:01;5.40;;;3.23;;
12263;SDS011;6194;49.010;8.414;2023-05-07T00:26:27;4.77;;;3.47;;
12263;SDS011;6194;49.010;8.414;2023-05-07T00:28:53;5.37;;;3.50;;
12263;SDS011;6194;49.010;8.414;2023-05-07T00:31:18;6.30;;;3.37;;
12263;SDS011;6194;49.010;8.414;2023-05-07T00:33:44;3.73;;;3.30;;
12263;SDS011;6194;49.010;8.414;2023-05-07T00:36:09;3.40;;;3.10;;
12263;SDS011;6194;49.010;8.414;2023-05-07T00:38:35;3.73;;;3.13;;
12263;SDS011;6194;49.010;8.414;2023-05-07T00:41:01;3.77;;;3.10;;
12263;SDS011;6194;49.010;8.414;2023-05-07T00:43:27;3.77;;;3.10;;
12263;SDS011;6194;49.010;8.414;2023-05-07T00:45:53;5.53;;;3.13;;
12263;SDS011;6194;49.010;8.414;2023-05-07T00:48:19;5.00;;;3.00;;
12263;SDS011;6194;49.010;8.414;2023-05-07T00:50:45;4.20;;;3.57;;
12263;SDS011;6194;49.010;8.414;2023-05-07T00:53:12;4.30;;;3.20;;
12263;SDS011;6194;49.010;8.414;2023-05-07T00:55:38;3.60;;;3.30;;
12263;SDS011;6194;49.010;8.414;2023-05-07T00:58:03;4.00;;;3.07;;
12263;SDS011;6194;49.010;8.414;2023-05-07T01:00:29;3.57;;;3.27;;
12263;SDS011;6194;49.010;8.414;2023-05-07T01:02:55;3.37;;;3.17;;
12263;SDS011;6194;49.010;8.414;2023-05-07T01:05:20;4.63;;;3.67;;
12263;SDS011;6194;49.010;8.414;2023-05-07T01:07:48;3.40;;;3.10;;
12263;SDS011;6194;49.010;8.414;2023-05-07T01:10:15;3.70;;;3.40;;
12263;SDS011;6194;49.010;8.414;2023-05-07T01:12:42;4.40;;;3.80;;
12263;SDS011;6194;49.010;8.414;2023-05-07T01:15:09;4.20;;;3.80;;
12263;SDS011;6194;49.010;8.414;2023-05-07T01:17:35;3.90;;;3.60;;
12263;SDS011;6194;49.010;8.414;2023-05-07T01:20:02;6.73;;;3.73;;
12263;SDS011;6194;49.010;8.414;2023-05-07T01:22:30;4.57;;;3.63;;
12263;SDS011;6194;49.010;8.414;2023-05-07T01:24:57;4.20;;;3.47;;
12263;SDS011;6194;49.010;8.414;2023-05-07T01:27:24;3.70;;;3.40;;
12263;SDS011;6194;49.010;8.414;2023-05-07T01:29:50;3.80;;;3.40;;
12263;SDS011;6194;49.010;8.414;2023-05-07T01:32:16;4.10;;;3.70;;
12263;SDS011;6194;49.010;8.414;2023-05-07T01:34:46;3.80;;;3.50;;
12263;SDS011;6194;49.010;8.414;2023-05-07T01:37:15;3.70;;;3.40;;
12263;SDS011;6194;49.010;8.414;2023-05-07T01:39:42;4.93;;;3.67;;
12263;SDS011;6194;49.010;8.414;2023-05-07T01:42:07;5.67;;;3.60;;
12263;SDS011;6194;49.010;8.414;2023-05-07T01:44:33;3.77;;;3.47;;
12263;SDS011;6194;49.010;8.414;2023-05-07T01:46:59;4.07;;;3.67;;
12263;SDS011;6194;49.010;8.414;2023-05-07T01:49:26;4.33;;;3.40;;
12263;SDS011;6194;49.010;8.414;2023-05-07T01:51:52;4.37;;;3.97;;
12263;SDS011;6194;49.010;8.414;2023-05-07T01:54:18;4.00;;;3.60;;
12263;SDS011;6194;49.010;8.414;2023-05-07T01:56:43;4.43;;;3.73;;
12263;SDS011;6194;49.010;8.414;2023-05-07T01:59:09;3.83;;;3.43;;
12263;SDS011;6194;49.010;8.414;2023-05-07T02:01:35;4.63;;;3.50;;
12263;SDS011;6194;49.010;8.414;2023-05-07T02:04:01;4.43;;;3.43;;
12263;SDS011;6194;49.010;8.414;2023-05-07T02:06:26;3.50;;;3.20;;
12263;SDS011;6194;49.010;8.414;2023-05-07T02:08:52;5.20;;;3.27;;
12263;SDS011;6194;49.010;8.414;2023-05-07T02:11:17;3.40;;;3.03;;
12263;SDS011;6194;49.010;8.414;2023-05-07T02:13:43;4.83;;;3.20;;
12263;SDS011;6194;49.010;8.414;2023-05-07T02:16:09;3.90;;;3.60;;
12263;SDS011;6194;49.010;8.414;2023-05-07T02:18:35;3.80;;;3.43;;
12263;SDS011;6194;49.010;8.414;2023-05-07T02:21:01;6.13;;;3.60;;
12263;SDS011;6194;49.010;8.414;2023-05-07T02:23:26;5.50;;;3.70;;
12263;SDS011;6194;49.010;8.414;2023-05-07T02:25:52;6.10;;;3.97;;
12263;SDS011;6194;49.010;8.414;2023-05-07T02:28:18;4.63;;;4.00;;
12263;SDS011;6194;49.010;8.414;2023-05-07T02:30:43;4.17;;;3.70;;
12263;SDS011;6194;49.010;8.414;2023-05-07T02:33:09;3.93;;;3.53;;
12263;SDS011;6194;49.010;8.414;2023-05-07T02:35:37;5.27;;;3.73;;
12263;SDS011;6194;49.010;8.414;2023-05-07T02:38:02;3.83;;;3.53;;
12263;SDS011;6194;49.010;8.414;2023-05-07T02:40:28;4.50;;;3.63;;
12263;SDS011;6194;49.010;8.414;2023-05-07T02:42:54;4.50;;;4.17;;
12263;SDS011;6194;49.010;8.414;2023-05-07T02:45:19;3.90;;;3.60;;
12263;SDS011;6194;49.010;8.414;2023-05-07T02:47:45;4.37;;;3.50;;
12263;SDS011;6194;49.010;8.414;2023-05-07T02:50:11;4.40;;;4.00;;
12263;SDS011;6194;49.010;8.414;2023-05-07T02:52:37;4.00;;;3.70;;
12263;SDS011;6194;49.010;8.414;2023-05-07T02:55:02;4.00;;;3.60;;
12263;SDS011;6194;49.010;8.414;2023-05-07T02:57:28;4.20;;;3.70;;
12263;SDS011;6194;49.010;8.414;2023-05-07T02:59:54;6.93;;;3.73;;
12263;SDS011;6194;49.010;8.414;2023-05-07T03:02:19;5.73;;;4.17;;
12263;SDS011;6194;49.010;8.414;2023-05-07T03:04:45;3.77;;;3.47;;
12263;SDS011;6194;49.010;8.414;2023-05-07T03:07:11;4.37;;;3.97;;
12263;SDS011;6194;49.010;8.414;2023-05-07T03:09:36;4.03;;;3.63;;
12263;SDS011;6194;49.010;8.414;2023-05-07T03:12:02;5.93;;;3.80;;
12263;SDS011;6194;49.010;8.414;2023-05-07T03:14:27;4.37;;;3.83;;
12263;SDS011;6194;49.010;8.414;2023-05-07T03:16:53;4.00;;;3.70;;
12263;SDS011;6194;49.010;8.414;2023-05-07T03:19:19;3.80;;;3.47;;
12263;SDS011;6194;49.010;8.414;2023-05-07T03:21:44;4.03;;;3.63;;
12263;SDS011;6194;49.010;8.414;2023-05-07T03:24:10;4.03;;;3.73;;
12263;SDS011;6194;49.010;8.414;2023-05-07T03:26:35;4.10;;;3.60;;
12263;SDS011;6194;49.010;8.414;2023-05-07T03:29:01;4.87;;;3.97;;
12263;SDS011;6194;49.010;8.414;2023-05-07T03:31:27;4.87;;;3.97;;
12263;SDS011;6194;49.010;8.414;2023-05-07T03:33:53;3.90;;;3.60;;
12263;SDS011;6194;49.010;8.414;2023-05-07T03:36:20;4.53;;;3.60;;
12263;SDS011;6194;49.010;8.414;2023-05-07T03:38:46;3.80;;;3.50;;
12263;SDS011;6194;49.010;8.414;2023-05-07T03:41:12;4.10;;;3.80;;
12263;SDS011;6194;49.010;8.414;2023-05-07T03:43:38;5.17;;;3.70;;
12263;SDS011;6194;49.010;8.414;2023-05-07T03:46:04;4.57;;;4.00;;
12263;SDS011;6194;49.010;8.414;2023-05-07T03:48:29;4.37;;;3.90;;
12263;SDS011;6194;49.010;8.414;2023-05-07T03:50:55;4.20;;;3.80;;
12263;SDS011;6194;49.010;8.414;2023-05-07T03:53:22;4.40;;;3.90;;
12263;SDS011;6194;49.010;8.414;2023-05-07T03:55:48;4.90;;;3.63;;
12263;SDS011;6194;49.010;8.414;2023-05-07T03:58:13;4.03;;;3.47;;
12263;SDS011;6194;49.010;8.414;2023-05-07T04:00:39;5.00;;;4.00;;
12263;SDS011;6194;49.010;8.414;2023-05-07T04:03:05;4.57;;;3.73;;
12263;SDS011;6194;49.010;8.414;2023-05-07T04:05:31;3.93;;;3.63;;
12263;SDS011;6194;49.010;8.414;2023-05-07T04:07:57;3.93;;;3.63;;
12263;SDS011;6194;49.010;8.414;2023-05-07T04:10:23;4.23;;;3.83;;
12263;SDS011;6194;49.010;8.414;2023-05-07T04:12:49;4.17;;;3.80;;
12263;SDS011;6194;49.010;8.414;2023-05-07T04:15:15;4.20;;;3.90;;
12263;SDS011;6194;49.010;8.414;2023-05-07T04:17:40;4.20;;;3.90;;
12263;SDS011;6194;49.010;8.414;2023-05-07T04:20:08;5.70;;;3.93;;
12263;SDS011;6194;49.010;8.414;2023-05-07T04:22:35;4.27;;;3.77;;
12263;SDS011;6194;49.010;8.414;2023-05-07T04:25:02;4.13;;;3.63;;
12263;SDS011;6194;49.010;8.414;2023-05-07T04:27:28;4.13;;;3.83;;
12263;SDS011;6194;49.010;8.414;2023-05-07T04:29:53;4.50;;;4.10;;
12263;SDS011;6194;49.010;8.414;2023-05-07T04:32:21;5.37;;;3.80;;
12263;SDS011;6194;49.010;8.414;2023-05-07T04:34:47;4.87;;;3.80;;
12263;SDS011;6194;49.010;8.414;2023-05-07T04:37:12;4.33;;;4.03;;
12263;SDS011;6194;49.010;8.414;2023-05-07T04:39:38;4.93;;;3.83;;
12263;SDS011;6194;49.010;8.414;2023-05-07T04:42:04;4.60;;;3.87;;
12263;SDS011;6194;49.010;8.414;2023-05-07T04:44:32;4.20;;;3.80;;
12263;SDS011;6194;49.010;8.414;2023-05-07T04:46:59;3.97;;;3.67;;
12263;SDS011;6194;49.010;8.414;2023-05-07T04:49:25;4.40;;;4.00;;
12263;SDS011;6194;49.010;8.414;2023-05-07T04:51:50;4.53;;;4.03;;
12263;SDS011;6194;49.010;8.414;2023-05-07T04:54:16;4.00;;;3.70;;
12263;SDS011;6194;49.010;8.414;2023-05-07T04:56:41;3.80;;;3.40;;
12263;SDS011;6194;49.010;8.414;2023-05-07T04:59:07;3.80;;;3.33;;
12263;SDS011;6194;49.010;8.414;2023-05-07T05:01:33;5.70;;;3.80;;
12263;SDS011;6194;49.010;8.414;2023-05-07T05:03:58;4.17;;;3.87;;
12263;SDS011;6194;49.010;8.414;2023-05-07T05:06:25;3.77;;;3.47;;
12263;SDS011;6194;49.010;8.414;2023-05-07T05:08:51;4.13;;;3.83;;
12263;SDS011;6194;49.010;8.414;2023-05-07T05:11:16;4.13;;;3.70;;
12263;SDS011;6194;49.010;8.414;2023-05-07T05:13:42;3.70;;;3.40;;
12263;SDS011;6194;49.010;8.414;2023-05-07T05:16:08;3.50;;;3.20;;
12263;SDS011;6194;49.010;8.414;2023-05-07T05:18:33;3.90;;;3.50;;
12263;SDS011;6194;49.010;8.414;2023-05-07T05:20:59;4.37;;;3.67;;
12263;SDS011;6194;49.010;8.414;2023-05-07T05:23:25;3.67;;;3.37;;
12263;SDS011;6194;49.010;8.414;2023-05-07T05:25:54;4.00;;;3.60;;
12263;SDS011;6194;49.010;8.414;2023-05-07T05:28:21;3.73;;;3.43;;
12263;SDS011;6194;49.010;8.414;2023-05-07T05:30:46;3.40;;;3.20;;
12263;SDS011;6194;49.010;8.414;2023-05-07T05:33:12;3.55;;;3.25;;
12263;SDS011;6194;49.010;8.414;2023-05-07T05:35:38;4.82;;;3.47;;
12263;SDS011;6194;49.010;8.414;2023-05-07T05:38:03;5.20;;;3.20;;
12263;SDS011;6194;49.010;8.414;2023-05-07T05:40:29;4.47;;;3.67;;
12263;SDS011;6194;49.010;8.414;2023-05-07T05:42:54;3.50;;;3.20;;
12263;SDS011;6194;49.010;8.414;2023-05-07T05:45:20;3.38;;;3.10;;
12263;SDS011;6194;49.010;8.414;2023-05-07T05:47:45;4.85;;;2.97;;
12263;SDS011;6194;49.010;8.414;2023-05-07T05:50:11;3.90;;;3.20;;
12263;SDS011;6194;49.010;8.414;2023-05-07T05:52:36;3.33;;;3.08;;
12263;SDS011;6194;49.010;8.414;2023-05-07T05:55:02;3.30;;;3.00;;
12263;SDS011;6194;49.010;8.414;2023-05-07T05:57:28;3.55;;;3.10;;
12263;SDS011;6194;49.010;8.414;2023-05-07T05:59:54;3.95;;;3.17;;
12263;SDS011;6194;49.010;8.414;2023-05-07T06:02:20;3.40;;;3.10;;
12263;SDS011;6194;49.010;8.414;2023-05-07T06:04:45;3.33;;;3.03;;
12263;SDS011;6194;49.010;8.414;2023-05-07T06:07:11;3.70;;;2.97;;
12263;SDS011;6194;49.010;8.414;2023-05-07T06:09:37;3.50;;;2.80;;
12263;SDS011;6194;49.010;8.414;2023-05-07T06:12:03;3.22;;;2.92;;
12263;SDS011;6194;49.010;8.414;2023-05-07T06:14:28;3.33;;;3.03;;
12263;SDS011;6194;49.010;8.414;2023-05-07T06:16:54;2.80;;;2.60;;
12263;SDS011;6194;49.010;8.414;2023-05-07T06:19:20;3.83;;;2.90;;
12263;SDS011;6194;49.010;8.414;2023-05-07T06:21:48;3.00;;;2.80;;
12263;SDS011;6194;49.010;8.414;2023-05-07T06:24:14;3.83;;;3.08;;
12263;SDS011;6194;49.010;8.414;2023-05-07T06:26:40;4.65;;;2.88;;
12263;SDS011;6194;49.010;8.414;2023-05-07T06:29:05;3.15;;;2.53;;
12263;SDS011;6194;49.010;8.414;2023-05-07T06:31:31;3.00;;;2.70;;
12263;SDS011;6194;49.010;8.414;2023-05-07T06:33:57;2.63;;;2.53;;
12263;SDS011;6194;49.010;8.414;2023-05-07T06:36:23;5.57;;;2.95;;
12263;SDS011;6194;49.010;8.414;2023-05-07T06:38:49;2.85;;;2.65;;
12263;SDS011;6194;49.010;8.414;2023-05-07T06:41:15;4.28;;;2.97;;
12263;SDS011;6194;49.010;8.414;2023-05-07T06:43:40;3.05;;;2.85;;
12263;SDS011;6194;49.010;8.414;2023-05-07T06:46:06;3.75;;;2.88;;
12263;SDS011;6194;49.010;8.414;2023-05-07T06:48:31;3.30;;;2.80;;
12263;SDS011;6194;49.010;8.414;2023-05-07T06:50:57;5.47;;;2.72;;
12263;SDS011;6194;49.010;8.414;2023-05-07T06:53:23;3.10;;;2.53;;
12263;SDS011;6194;49.010;8.414;2023-05-07T06:55:49;3.13;;;2.70;;
12263;SDS011;6194;49.010;8.414;2023-05-07T06:58:15;2.90;;;2.70;;
12263;SDS011;6194;49.010;8.414;2023-05-07T07:00:40;3.05;;;2.75;;
12263;SDS011;6194;49.010;8.414;2023-05-07T07:03:11;3.50;;;3.20;;
12263;SDS011;6194;49.010;8.414;2023-05-07T07:05:37;3.47;;;2.70;;
12263;SDS011;6194;49.010;8.414;2023-05-07T07:08:03;2.70;;;2.50;;
12263;SDS011;6194;49.010;8.414;2023-05-07T07:10:28;2.90;;;2.60;;
12263;SDS011;6194;49.010;8.414;2023-05-07T07:12:54;2.90;;;2.70;;
12263;SDS011;6194;49.010;8.414;2023-05-07T07:15:20;3.72;;;2.63;;
12263;SDS011;6194;49.010;8.414;2023-05-07T07:17:45;3.42;;;2.70;;
12263;SDS011;6194;49.010;8.414;2023-05-07T07:20:11;4.72;;;2.75;;
12263;SDS011;6194;49.010;8.414;2023-05-07T07:22:37;3.03;;;2.72;;
12263;SDS011;6194;49.010;8.414;2023-05-07T07:25:02;2.83;;;2.63;;
12263;SDS011;6194;49.010;8.414;2023-05-07T07:27:28;2.92;;;2.60;;
12263;SDS011;6194;49.010;8.414;2023-05-07T07:29:54;3.22;;;2.58;;
12263;SDS011;6194;49.010;8.414;2023-05-07T07:32:20;2.90;;;2.70;;
12263;SDS011;6194;49.010;8.414;2023-05-07T07:34:45;2.80;;;2.60;;
12263;SDS011;6194;49.010;8.414;2023-05-07T07:37:11;3.75;;;2.63;;
12263;SDS011;6194;49.010;8.414;2023-05-07T07:39:36;2.90;;;2.70;;
12263;SDS011;6194;49.010;8.414;2023-05-07T07:42:06;3.17;;;2.80;;
12263;SDS011;6194;49.010;8.414;2023-05-07T07:44:31;2.90;;;2.70;;
12263;SDS011;6194;49.010;8.414;2023-05-07T07:46:57;3.08;;;2.80;;
12263;SDS011;6194;49.010;8.414;2023-05-07T07:49:22;2.53;;;2.33;;
12263;SDS011;6194;49.010;8.414;2023-05-07T07:51:48;5.07;;;2.45;;
12263;SDS011;6194;49.010;8.414;2023-05-07T07:54:14;2.45;;;2.30;;
12263;SDS011;6194;49.010;8.414;2023-05-07T07:56:39;2.67;;;2.45;;
12263;SDS011;6194;49.010;8.414;2023-05-07T07:59:05;3.60;;;2.42;;
12263;SDS011;6194;49.010;8.414;2023-05-07T08:01:30;4.65;;;2.40;;
12263;SDS011;6194;49.010;8.414;2023-05-07T08:03:56;2.95;;;2.30;;
12263;SDS011;6194;49.010;8.414;2023-05-07T08:06:25;2.42;;;2.22;;
12263;SDS011;6194;49.010;8.414;2023-05-07T08:08:51;2.75;;;2.53;;
12263;SDS011;6194;49.010;8.414;2023-05-07T08:11:17;3.33;;;2.15;;
12263;SDS011;6194;49.010;8.414;2023-05-07T08:13:42;2.65;;;2.45;;
12263;SDS011;6194;49.010;8.414;2023-05-07T08:16:08;2.53;;;2.33;;
12263;SDS011;6194;49.010;8.414;2023-05-07T08:18:34;2.65;;;2.22;;
12263;SDS011;6194;49.010;8.414;2023-05-07T08:21:00;5.88;;;1.95;;
12263;SDS011;6194;49.010;8.414;2023-05-07T08:23:26;2.60;;;2.10;;
12263;SDS011;6194;49.010;8.414;2023-05-07T08:25:51;3.28;;;1.83;;
12263;SDS011;6194;49.010;8.414;2023-05-07T08:28:17;2.13;;;1.92;;
12263;SDS011;6194;49.010;8.414;2023-05-07T08:30:44;3.22;;;2.38;;
12263;SDS011;6194;49.010;8.414;2023-05-07T08:33:10;2.38;;;2.17;;
12263;SDS011;6194;49.010;8.414;2023-05-07T08:35:36;2.28;;;2.00;;
12263;SDS011;6194;49.010;8.414;2023-05-07T08:38:01;3.38;;;2.20;;
12263;SDS011;6194;49.010;8.414;2023-05-07T08:40:27;3.17;;;1.90;;
12263;SDS011;6194;49.010;8.414;2023-05-07T08:42:53;2.50;;;2.15;;
12263;SDS011;6194;49.010;8.414;2023-05-07T08:45:20;2.47;;;2.28;;
12263;SDS011;6194;49.010;8.414;2023-05-07T08:47:50;2.95;;;1.85;;
12263;SDS011;6194;49.010;8.414;2023-05-07T08:50:21;3.90;;;2.00;;
12263;SDS011;6194;49.010;8.414;2023-05-07T08:52:47;2.22;;;2.13;;
12263;SDS011;6194;49.010;8.414;2023-05-07T08:55:13;2.58;;;2.00;;
12263;SDS011;6194;49.010;8.414;2023-05-07T08:57:38;2.17;;;1.98;;
12263;SDS011;6194;49.010;8.414;2023-05-07T09:00:04;2.53;;;2.33;;
12263;SDS011;6194;49.010;8.414;2023-05-07T09:02:32;2.50;;;2.30;;
12263;SDS011;6194;49.010;8.414;2023-05-07T09:04:58;2.50;;;2.00;;
12263;SDS011;6194;49.010;8.414;2023-05-07T09:07:23;2.10;;;1.90;;
12263;SDS011;6194;49.010;8.414;2023-05-07T09:09:50;2.72;;;2.33;;
12263;SDS011;6194;49.010;8.414;2023-05-07T09:12:17;2.40;;;2.30;;
12263;SDS011;6194;49.010;8.414;2023-05-07T09:14:43;2.40;;;2.20;;
12263;SDS011;6194;49.010;8.414;2023-05-07T09:17:08;3.45;;;2.50;;
12263;SDS011;6194;49.010;8.414;2023-05-07T09:19:34;2.88;;;2.40;;
12263;SDS011;6194;49.010;8.414;2023-05-07T09:22:00;2.42;;;2.17;;
12263;SDS011;6194;49.010;8.414;2023-05-07T09:24:30;2.60;;;2.30;;
12263;SDS011;6194;49.010;8.414;2023-05-07T09:27:00;4.68;;;2.50;;
12263;SDS011;6194;49.010;8.414;2023-05-07T09:29:27;3.50;;;2.30;;
12263;SDS011;6194;49.010;8.414;2023-05-07T09:32:00;3.35;;;2.60;;
12263;SDS011;6194;49.010;8.414;2023-05-07T09:34:33;2.67;;;2.40;;
12263;SDS011;6194;49.010;8.414;2023-05-07T09:37:02;2.88;;;2.30;;
12263;SDS011;6194;49.010;8.414;2023-05-07T09:39:42;2.65;;;2.40;;
12263;SDS011;6194;49.010;8.414;2023-05-07T09:42:08;3.17;;;2.20;;
12263;SDS011;6194;49.010;8.414;2023-05-07T09:44:36;4.15;;;2.42;;
12263;SDS011;6194;49.010;8.414;2023-05-07T09:47:04;2.70;;;2.50;;
12263;SDS011;6194;49.010;8.414;2023-05-07T09:49:30;3.80;;;2.47;;
12263;SDS011;6194;49.010;8.414;2023-05-07T09:52:02;2.80;;;2.60;;
12263;SDS011;6194;49.010;8.414;2023-05-07T09:54:31;3.03;;;2.30;;
12263;SDS011;6194;49.010;8.414;2023-05-07T09:56:58;2.70;;;2.50;;
12263;SDS011;6194;49.010;8.414;2023-05-07T09:59:27;3.45;;;2.50;;
12263;SDS011;6194;49.010;8.414;2023-05-07T10:01:56;2.67;;;2.47;;
12263;SDS011;6194;49.010;8.414;2023-05-07T10:04:23;2.65;;;2.38;;
12263;SDS011;6194;49.010;8.414;2023-05-07T10:06:51;2.65;;;2.45;;
12263;SDS011;6194;49.010;8.414;2023-05-07T10:09:16;3.53;;;2.78;;
12263;SDS011;6194;49.010;8.414;2023-05-07T10:11:43;5.05;;;3.08;;
12263;SDS011;6194;49.010;8.414;2023-05-07T10:14:09;4.25;;;2.78;;
12263;SDS011;6194;49.010;8.414;2023-05-07T10:16:36;3.17;;;2.30;;
12263;SDS011;6194;49.010;8.414;2023-05-07T10:19:02;2.60;;;2.40;;
12263;SDS011;6194;49.010;8.414;2023-05-07T10:21:29;3.10;;;2.90;;
12263;SDS011;6194;49.010;8.414;2023-05-07T10:23:59;4.43;;;3.22;;
12263;SDS011;6194;49.010;8.414;2023-05-07T10:26:31;3.67;;;2.70;;
12263;SDS011;6194;49.010;8.414;2023-05-07T10:29:04;2.55;;;2.30;;
12263;SDS011;6194;49.010;8.414;2023-05-07T10:34:50;2.63;;;2.40;;
12263;SDS011;6194;49.010;8.414;2023-05-07T10:37:18;2.70;;;2.50;;
12263;SDS011;6194;49.010;8.414;2023-05-07T10:39:44;3.00;;;2.78;;
12263;SDS011;6194;49.010;8.414;2023-05-07T10:42:10;3.03;;;2.83;;
12263;SDS011;6194;49.010;8.414;2023-05-07T10:44:37;4.20;;;2.53;;
12263;SDS011;6194;49.010;8.414;2023-05-07T10:47:09;3.33;;;2.88;;
12263;SDS011;6194;49.010;8.414;2023-05-07T10:49:37;5.25;;;2.88;;
12263;SDS011;6194;49.010;8.414;2023-05-07T10:54:41;4.15;;;2.50;;
12263;SDS011;6194;49.010;8.414;2023-05-07T10:59:53;3.78;;;2.30;;
12263;SDS011;6194;49.010;8.414;2023-05-07T11:02:19;2.92;;;2.55;;
12263;SDS011;6194;49.010;8.414;2023-05-07T11:04:44;4.72;;;2.70;;
12263;SDS011;6194;49.010;8.414;2023-05-07T11:07:16;2.92;;;2.45;;
12263;SDS011;6194;49.010;8.414;2023-05-07T11:15:11;2.47;;;2.28;;
12263;SDS011;6194;49.010;8.414;2023-05-07T11:17:56;3.72;;;2.83;;
12263;SDS011;6194;49.010;8.414;2023-05-07T11:28:30;3.47;;;3.05;;
12263;SDS011;6194;49.010;8.414;2023-05-07T11:31:01;3.47;;;2.70;;
12263;SDS011;6194;49.010;8.414;2023-05-07T11:33:27;2.78;;;2.47;;
12263;SDS011;6194;49.010;8.414;2023-05-07T11:35:53;3.25;;;2.72;;
12263;SDS011;6194;49.010;8.414;2023-05-07T11:38:19;3.10;;;2.60;;
12263;SDS011;6194;49.010;8.414;2023-05-07T11:40:49;2.90;;;2.47;;
12263;SDS011;6194;49.010;8.414;2023-05-07T11:43:15;3.05;;;2.75;;
12263;SDS011;6194;49.010;8.414;2023-05-07T11:45:41;3.08;;;2.80;;
12263;SDS011;6194;49.010;8.414;2023-05-07T11:48:06;2.45;;;2.28;;
12263;SDS011;6194;49.010;8.414;2023-05-07T11:50:32;2.55;;;2.30;;
12263;SDS011;6194;49.010;8.414;2023-05-07T11:52:57;3.50;;;2.50;;
12263;SDS011;6194;49.010;8.414;2023-05-07T11:55:24;3.58;;;2.40;;
12263;SDS011;6194;49.010;8.414;2023-05-07T11:57:50;2.60;;;2.40;;
12263;SDS011;6194;49.010;8.414;2023-05-07T12:00:16;2.63;;;2.30;;
12263;SDS011;6194;49.010;8.414;2023-05-07T12:02:43;4.82;;;2.30;;
12263;SDS011;6194;49.010;8.414;2023-05-07T12:05:10;4.07;;;2.60;;
12263;SDS011;6194;49.010;8.414;2023-05-07T12:07:35;2.45;;;2.25;;
12263;SDS011;6194;49.010;8.414;2023-05-07T12:10:05;2.20;;;2.10;;
12263;SDS011;6194;49.010;8.414;2023-05-07T12:12:34;2.72;;;2.28;;
12263;SDS011;6194;49.010;8.414;2023-05-07T12:15:06;2.58;;;2.38;;
12263;SDS011;6194;49.010;8.414;2023-05-07T12:17:33;2.30;;;2.13;;
12263;SDS011;6194;49.010;8.414;2023-05-07T12:19:58;3.00;;;2.70;;
12263;SDS011;6194;49.010;8.414;2023-05-07T12:22:25;2.80;;;2.40;;
12263;SDS011;6194;49.010;8.414;2023-05-07T12:24:57;4.47;;;2.55;;
12263;SDS011;6194;49.010;8.414;2023-05-07T12:27:23;2.58;;;2.38;;
12263;SDS011;6194;49.010;8.414;2023-05-07T12:29:50;3.58;;;2.33;;
12263;SDS011;6194;49.010;8.414;2023-05-07T12:32:16;2.55;;;2.20;;
12263;SDS011;6194;49.010;8.414;2023-05-07T12:34:44;2.65;;;2.45;;
12263;SDS011;6194;49.010;8.414;2023-05-07T12:37:10;3.15;;;2.45;;
12263;SDS011;6194;49.010;8.414;2023-05-07T12:39:36;2.78;;;2.50;;
12263;SDS011;6194;49.010;8.414;2023-05-07T12:42:01;4.00;;;2.53;;
12263;SDS011;6194;49.010;8.414;2023-05-07T12:44:31;2.92;;;2.65;;
12263;SDS011;6194;49.010;8.414;2023-05-07T12:46:58;2.60;;;2.40;;
12263;SDS011;6194;49.010;8.414;2023-05-07T12:49:26;2.60;;;2.40;;
12263;SDS011;6194;49.010;8.414;2023-05-07T12:51:51;2.33;;;2.10;;
12263;SDS011;6194;49.010;8.414;2023-05-07T12:54:28;4.03;;;2.72;;
12263;SDS011;6194;49.010;8.414;2023-05-07T12:57:28;2.28;;;2.17;;
12263;SDS011;6194;49.010;8.414;2023-05-07T12:59:46;2.88;;;2.22;;
12263;SDS011;6194;49.010;8.414;2023-05-07T13:02:12;2.72;;;2.25;;
12263;SDS011;6194;49.010;8.414;2023-05-07T13:04:37;3.53;;;2.30;;
12263;SDS011;6194;49.010;8.414;2023-05-07T13:07:03;2.70;;;2.10;;
12263;SDS011;6194;49.010;8.414;2023-05-07T13:09:29;5.05;;;2.10;;
12263;SDS011;6194;49.010;8.414;2023-05-07T13:11:56;4.13;;;2.50;;
12263;SDS011;6194;49.010;8.414;2023-05-07T13:14:21;2.97;;;2.28;;
12263;SDS011;6194;49.010;8.414;2023-05-07T13:16:47;2.97;;;2.45;;
12263;SDS011;6194;49.010;8.414;2023-05-07T13:19:13;3.10;;;2.03;;
12263;SDS011;6194;49.010;8.414;2023-05-07T13:21:38;3.25;;;2.47;;
12263;SDS011;6194;49.010;8.414;2023-05-07T13:24:04;2.50;;;2.30;;
12263;SDS011;6194;49.010;8.414;2023-05-07T13:26:30;2.60;;;2.40;;
12263;SDS011;6194;49.010;8.414;2023-05-07T13:28:56;2.90;;;2.22;;
12263;SDS011;6194;49.010;8.414;2023-05-07T13:31:22;3.97;;;2.60;;
12263;SDS011;6194;49.010;8.414;2023-05-07T13:33:48;3.67;;;2.45;;
12263;SDS011;6194;49.010;8.414;2023-05-07T13:36:14;2.92;;;2.40;;
12263;SDS011;6194;49.010;8.414;2023-05-07T13:38:40;2.65;;;2.40;;
12263;SDS011;6194;49.010;8.414;2023-05-07T13:41:05;4.97;;;2.40;;
12263;SDS011;6194;49.010;8.414;2023-05-07T13:43:31;2.63;;;2.42;;
12263;SDS011;6194;49.010;8.414;2023-05-07T13:45:59;2.53;;;2.33;;
12263;SDS011;6194;49.010;8.414;2023-05-07T13:48:25;2.97;;;2.20;;
12263;SDS011;6194;49.010;8.414;2023-05-07T13:50:51;2.47;;;2.28;;
12263;SDS011;6194;49.010;8.414;2023-05-07T13:53:17;2.60;;;2.40;;
12263;SDS011;6194;49.010;8.414;2023-05-07T13:55:43;4.80;;;2.40;;
12263;SDS011;6194;49.010;8.414;2023-05-07T13:58:09;2.60;;;2.40;;
12263;SDS011;6194;49.010;8.414;2023-05-07T14:00:35;5.05;;;2.40;;
12263;SDS011;6194;49.010;8.414;2023-05-07T14:03:00;2.72;;;2.30;;
12263;SDS011;6194;49.010;8.414;2023-05-07T14:05:26;3.20;;;2.40;;
12263;SDS011;6194;49.010;8.414;2023-05-07T14:07:53;2.75;;;2.55;;
12263;SDS011;6194;49.010;8.414;2023-05-07T14:10:22;5.95;;;2.58;;
12263;SDS011;6194;49.010;8.414;2023-05-07T14:12:47;6.75;;;2.92;;
12263;SDS011;6194;49.010;8.414;2023-05-07T14:15:13;3.17;;;2.80;;
12263;SDS011;6194;49.010;8.414;2023-05-07T14:17:39;3.10;;;2.90;;
12263;SDS011;6194;49.010;8.414;2023-05-07T14:20:05;3.63;;;2.78;;
12263;SDS011;6194;49.010;8.414;2023-05-07T14:22:31;3.47;;;3.17;;
12263;SDS011;6194;49.010;8.414;2023-05-07T14:24:57;3.65;;;2.92;;
12263;SDS011;6194;49.010;8.414;2023-05-07T14:27:23;3.53;;;2.80;;
12263;SDS011;6194;49.010;8.414;2023-05-07T14:29:48;3.58;;;2.13;;
12263;SDS011;6194;49.010;8.414;2023-05-07T14:32:16;2.15;;;2.05;;
12263;SDS011;6194;49.010;8.414;2023-05-07T14:34:43;3.67;;;1.92;;
12263;SDS011;6194;49.010;8.414;2023-05-07T14:37:08;1.60;;;1.50;;
12263;SDS011;6194;49.010;8.414;2023-05-07T14:39:34;2.35;;;1.60;;
12263;SDS011;6194;49.010;8.414;2023-05-07T14:42:00;2.15;;;1.48;;
12263;SDS011;6194;49.010;8.414;2023-05-07T14:44:25;1.50;;;1.40;;
12263;SDS011;6194;49.010;8.414;2023-05-07T14:46:51;1.50;;;1.40;;
12263;SDS011;6194;49.010;8.414;2023-05-07T14:49:17;2.83;;;1.77;;
12263;SDS011;6194;49.010;8.414;2023-05-07T14:51:45;2.63;;;1.70;;
12263;SDS011;6194;49.010;8.414;2023-05-07T14:54:12;2.60;;;1.52;;
12263;SDS011;6194;49.010;8.414;2023-05-07T14:56:38;2.20;;;1.40;;
12263;SDS011;6194;49.010;8.414;2023-05-07T14:59:05;2.00;;;1.50;;
12263;SDS011;6194;49.010;8.414;2023-05-07T15:01:31;1.60;;;1.50;;
12263;SDS011;6194;49.010;8.414;2023-05-07T15:03:57;1.60;;;1.50;;
12263;SDS011;6194;49.010;8.414;2023-05-07T15:06:22;1.90;;;1.80;;
12263;SDS011;6194;49.010;8.414;2023-05-07T15:08:48;2.58;;;2.30;;
12263;SDS011;6194;49.010;8.414;2023-05-07T15:11:14;1.70;;;1.60;;
12263;SDS011;6194;49.010;8.414;2023-05-07T15:13:41;2.25;;;1.70;;
12263;SDS011;6194;49.010;8.414;2023-05-07T15:16:07;2.15;;;2.00;;
12263;SDS011;6194;49.010;8.414;2023-05-07T15:18:33;2.03;;;1.90;;